METAR 2014/09/30 :

EPMO 23:30: METAR EPMO 302330Z NIL= EPMO 23:00: METAR EPMO 302300Z 06002KT 5000 BR SCT048 13/13 Q1025=

TAF 2014/09/30 :

EPMO 23:00: TAF EPMO 302300Z NIL= EPMO 22:55: TAF AMD EPMO 302255Z 3021/0106 CNL=

Pogoda ogólna dla Polski